Aérodrome :
LOGIN :

S'inscrire | Disclaimer

   EN    FR    IT 

 










Légende :    VFR   VFR Marginal   IFR   IFR Intensif   IFR Très Intensif
Visi : 
Plafond : 
>= 8 km
>= 3000ft
5 à 8 km
1000 à 3000 ft
1500m à 5 km
500 à 1000 ft
800 à 1500m
200 à 500 ft
< 800m
< 200 ft
Symboles :   Orages  Brouillard  Fortes neiges  Fortes précipitations  Vent > 20 kt
SIGMETs :   Divers  Orages  Givrage  Turbulence  Onde Orograph.  Cendres Volcan.







- Altitude de l'aérodrome : 119 ft
- Code IATA : WAT


EIWF - Waterford

DERNIER METAR :
  • 201400Z 06010KT 7000 +RA BKN004 10/10 Q0999 REDZ R03/2/////

METARs EXPIRÉS :
  • 201330Z 05011KT 020V080 9000 DZ FEW004 SCT005 BKN012 10/09 Q1000 RERA R03/2/////
  • 201300Z 02004KT 350V060 1500 +RA BKN004 11/10 Q1001 R03/2/////
  • 201230Z 07009KT 040V100 7000 RA BKN004 11/10 Q1001 R03/1/////
  • 201200Z 09009KT 7000 RA BKN005 11/10 Q1002 R03/1/////
  • 201130Z 08009KT 040V100 8000 RA SCT004 BKN008 11/10 Q1003 R03/1/////

TAF COR TAF EIWF
Valide du 20 à 12h jusqu'au 20 à 21h UTC


201110Z 2012/2021 07007KT 9999 -RA SCT008 BKN015
BECMG 2012/2015 04012KT
TEMPO 2012/2021 4000 RA BKN008 SCT018CB
PROB30
TEMPO 2012/2015 BKN004
PROB40
TEMPO 2015/2021 2000 +RA BKN004
BECMG 2019/2021 33015KT
ATIS : +353 51 877 000
Pas de NOTAMs connus pour ce terrain.



MET'MAP, la Météo Aéronautique d'un coup d'oeil ! - Copyright ORBIFLY Décembre 2007 - Disclaimer

ORBIFLY MET'MAP TEAM :

Programmation & Développement : Alexandra Zaïnal
Conception & Développement : Baudouin d'Aumeries
Co-Programmation & Développement : Marc-Olivier Méhu
Soutien technique & logistique : Manuel Goepfert

Contact : metmap@orbifly.com




SOURCES & CREDITS :

   NOAA